sensor_id;sensor_type;location;lat;lon;timestamp;pressure;altitude;pressure_sealevel;temperature;humidity
74960;BME280;63518;49.572;1.106;2024-02-04T00:02:17;101158.75;;;8.10;100.00
74960;BME280;63518;49.572;1.106;2024-02-04T00:04:51;101166.03;;;8.04;97.51
74960;BME280;63518;49.572;1.106;2024-02-04T00:07:18;101157.06;;;8.09;98.54
74960;BME280;63518;49.572;1.106;2024-02-04T00:09:44;101164.34;;;8.38;96.97
74960;BME280;63518;49.572;1.106;2024-02-04T00:12:11;101149.75;;;8.15;98.10
74960;BME280;63518;49.572;1.106;2024-02-04T00:14:38;101153.94;;;8.29;97.70
74960;BME280;63518;49.572;1.106;2024-02-04T00:17:05;101146.53;;;8.18;97.41
74960;BME280;63518;49.572;1.106;2024-02-04T00:19:32;101163.41;;;8.09;99.51
74960;BME280;63518;49.572;1.106;2024-02-04T00:21:58;101150.00;;;8.36;99.16
74960;BME280;63518;49.572;1.106;2024-02-04T00:24:25;101148.69;;;8.04;97.76
74960;BME280;63518;49.572;1.106;2024-02-04T00:26:52;101161.38;;;8.17;96.98
74960;BME280;63518;49.572;1.106;2024-02-04T00:29:19;101150.38;;;8.28;98.21
74960;BME280;63518;49.572;1.106;2024-02-04T00:31:46;101133.50;;;8.13;97.64
74960;BME280;63518;49.572;1.106;2024-02-04T00:34:12;101142.44;;;8.08;97.90
74960;BME280;63518;49.572;1.106;2024-02-04T00:36:39;101134.47;;;8.19;95.60
74960;BME280;63518;49.572;1.106;2024-02-04T00:39:06;101152.03;;;8.18;95.41
74960;BME280;63518;49.572;1.106;2024-02-04T00:41:34;101141.03;;;8.18;94.62
74960;BME280;63518;49.572;1.106;2024-02-04T00:44:01;101150.13;;;8.30;95.45
74960;BME280;63518;49.572;1.106;2024-02-04T00:46:28;101155.38;;;8.20;94.21
74960;BME280;63518;49.572;1.106;2024-02-04T00:48:55;101136.25;;;8.13;96.81
74960;BME280;63518;49.572;1.106;2024-02-04T00:51:22;101144.97;;;8.22;95.29
74960;BME280;63518;49.572;1.106;2024-02-04T00:53:49;101132.03;;;7.99;96.82
74960;BME280;63518;49.572;1.106;2024-02-04T00:56:15;101131.56;;;8.37;93.87
74960;BME280;63518;49.572;1.106;2024-02-04T00:58:42;101126.91;;;7.91;92.65
74960;BME280;63518;49.572;1.106;2024-02-04T01:01:09;101132.53;;;8.07;91.18
74960;BME280;63518;49.572;1.106;2024-02-04T01:03:36;101113.16;;;8.14;90.97
74960;BME280;63518;49.572;1.106;2024-02-04T01:06:03;101117.22;;;8.23;90.04
74960;BME280;63518;49.572;1.106;2024-02-04T01:08:30;101113.28;;;8.31;91.10
74960;BME280;63518;49.572;1.106;2024-02-04T01:10:56;101084.00;;;8.25;92.31
74960;BME280;63518;49.572;1.106;2024-02-04T01:13:23;101104.19;;;8.30;93.35
74960;BME280;63518;49.572;1.106;2024-02-04T01:15:50;101086.25;;;8.16;93.40
74960;BME280;63518;49.572;1.106;2024-02-04T01:18:17;101085.19;;;8.17;90.94
74960;BME280;63518;49.572;1.106;2024-02-04T01:20:43;101100.47;;;8.36;93.11
74960;BME280;63518;49.572;1.106;2024-02-04T01:23:10;101106.94;;;8.42;92.87
74960;BME280;63518;49.572;1.106;2024-02-04T01:25:37;101098.91;;;8.29;94.39
74960;BME280;63518;49.572;1.106;2024-02-04T01:28:09;101093.78;;;8.21;95.48
74960;BME280;63518;49.572;1.106;2024-02-04T01:30:36;101101.06;;;8.15;95.99
74960;BME280;63518;49.572;1.106;2024-02-04T01:33:04;101115.66;;;8.51;94.03
74960;BME280;63518;49.572;1.106;2024-02-04T01:35:31;101108.03;;;8.06;96.28
74960;BME280;63518;49.572;1.106;2024-02-04T01:37:57;101107.41;;;8.39;92.93
74960;BME280;63518;49.572;1.106;2024-02-04T01:40:24;101107.31;;;8.34;95.14
74960;BME280;63518;49.572;1.106;2024-02-04T01:42:51;101108.00;;;8.29;97.17
74960;BME280;63518;49.572;1.106;2024-02-04T01:45:17;101110.88;;;8.34;96.30
74960;BME280;63518;49.572;1.106;2024-02-04T01:47:44;101111.97;;;8.33;95.10
74960;BME280;63518;49.572;1.106;2024-02-04T01:50:11;101098.56;;;8.13;93.96
74960;BME280;63518;49.572;1.106;2024-02-04T01:52:39;101105.50;;;8.28;92.81
74960;BME280;63518;49.572;1.106;2024-02-04T01:55:08;101090.06;;;8.15;93.16
74960;BME280;63518;49.572;1.106;2024-02-04T01:57:35;101101.09;;;8.27;92.62
74960;BME280;63518;49.572;1.106;2024-02-04T02:00:03;101089.38;;;8.20;93.61
74960;BME280;63518;49.572;1.106;2024-02-04T02:02:32;101083.63;;;8.33;92.41
74960;BME280;63518;49.572;1.106;2024-02-04T02:05:00;101084.13;;;7.95;93.24
74960;BME280;63518;49.572;1.106;2024-02-04T02:07:28;101091.28;;;8.19;93.72
74960;BME280;63518;49.572;1.106;2024-02-04T02:09:54;101083.84;;;8.31;93.17
74960;BME280;63518;49.572;1.106;2024-02-04T02:12:38;101067.00;;;8.04;94.47
74960;BME280;63518;49.572;1.106;2024-02-04T02:15:13;101096.06;;;8.35;96.19
74960;BME280;63518;49.572;1.106;2024-02-04T02:21:26;101088.88;;;8.34;96.96
74960;BME280;63518;49.572;1.106;2024-02-04T02:26:26;101065.56;;;8.13;97.53
74960;BME280;63518;49.572;1.106;2024-02-04T02:28:53;101068.31;;;8.13;96.28
74960;BME280;63518;49.572;1.106;2024-02-04T02:31:20;101072.44;;;8.51;95.68
74960;BME280;63518;49.572;1.106;2024-02-04T02:33:56;101077.75;;;8.29;97.51
74960;BME280;63518;49.572;1.106;2024-02-04T02:36:24;101067.56;;;8.42;96.08
74960;BME280;63518;49.572;1.106;2024-02-04T02:41:30;101074.75;;;8.43;96.03
74960;BME280;63518;49.572;1.106;2024-02-04T02:43:57;101078.72;;;8.11;97.65
74960;BME280;63518;49.572;1.106;2024-02-04T02:46:25;101070.94;;;8.20;97.90
74960;BME280;63518;49.572;1.106;2024-02-04T02:48:52;101073.09;;;8.18;95.19
74960;BME280;63518;49.572;1.106;2024-02-04T02:51:19;101076.09;;;8.17;97.16
74960;BME280;63518;49.572;1.106;2024-02-04T02:53:46;101055.06;;;8.10;95.32
74960;BME280;63518;49.572;1.106;2024-02-04T02:56:12;101062.97;;;7.95;94.84
74960;BME280;63518;49.572;1.106;2024-02-04T02:58:39;101063.53;;;8.32;93.19
74960;BME280;63518;49.572;1.106;2024-02-04T03:01:06;101073.56;;;8.27;95.17
74960;BME280;63518;49.572;1.106;2024-02-04T03:03:33;101072.16;;;8.12;95.42
74960;BME280;63518;49.572;1.106;2024-02-04T03:05:59;101067.06;;;8.45;93.41
74960;BME280;63518;49.572;1.106;2024-02-04T03:08:26;101060.06;;;8.13;97.00
74960;BME280;63518;49.572;1.106;2024-02-04T03:10:53;101078.22;;;8.38;95.21
74960;BME280;63518;49.572;1.106;2024-02-04T03:13:20;101058.06;;;8.09;95.97
74960;BME280;63518;49.572;1.106;2024-02-04T03:15:46;101060.69;;;8.04;94.30
74960;BME280;63518;49.572;1.106;2024-02-04T03:18:13;101046.81;;;7.99;93.66
74960;BME280;63518;49.572;1.106;2024-02-04T03:20:40;101076.94;;;8.17;92.65
74960;BME280;63518;49.572;1.106;2024-02-04T03:23:07;101078.97;;;8.10;90.67
74960;BME280;63518;49.572;1.106;2024-02-04T03:25:33;101074.06;;;8.12;89.36
74960;BME280;63518;49.572;1.106;2024-02-04T03:28:00;101066.19;;;8.04;88.29
74960;BME280;63518;49.572;1.106;2024-02-04T03:30:27;101067.00;;;7.81;86.59
74960;BME280;63518;49.572;1.106;2024-02-04T03:32:54;101045.03;;;7.93;86.49
74960;BME280;63518;49.572;1.106;2024-02-04T03:35:21;101054.91;;;8.29;85.79
74960;BME280;63518;49.572;1.106;2024-02-04T03:37:48;101044.78;;;7.82;90.22
74960;BME280;63518;49.572;1.106;2024-02-04T03:40:15;101047.53;;;8.18;86.08
74960;BME280;63518;49.572;1.106;2024-02-04T03:42:41;101048.22;;;8.13;84.83
74960;BME280;63518;49.572;1.106;2024-02-04T03:45:08;101046.28;;;8.37;84.98
74960;BME280;63518;49.572;1.106;2024-02-04T03:47:35;101031.38;;;8.09;86.43
74960;BME280;63518;49.572;1.106;2024-02-04T03:50:02;101037.84;;;8.03;86.79
74960;BME280;63518;49.572;1.106;2024-02-04T03:52:30;101042.88;;;7.95;87.48
74960;BME280;63518;49.572;1.106;2024-02-04T03:54:57;101054.44;;;8.08;87.04
74960;BME280;63518;49.572;1.106;2024-02-04T03:57:26;101049.94;;;8.02;85.96
74960;BME280;63518;49.572;1.106;2024-02-04T03:59:52;101055.78;;;8.18;87.65
74960;BME280;63518;49.572;1.106;2024-02-04T04:02:19;101062.47;;;8.10;85.52
74960;BME280;63518;49.572;1.106;2024-02-04T04:04:46;101065.94;;;8.17;86.37
74960;BME280;63518;49.572;1.106;2024-02-04T04:07:15;101062.47;;;8.10;87.49
74960;BME280;63518;49.572;1.106;2024-02-04T04:09:42;101076.56;;;7.90;85.11
74960;BME280;63518;49.572;1.106;2024-02-04T04:12:09;101067.59;;;8.06;85.74
74960;BME280;63518;49.572;1.106;2024-02-04T04:14:35;101064.03;;;7.94;84.43
74960;BME280;63518;49.572;1.106;2024-02-04T04:17:02;101051.25;;;7.88;85.12
74960;BME280;63518;49.572;1.106;2024-02-04T04:19:29;101063.28;;;8.22;83.23
74960;BME280;63518;49.572;1.106;2024-02-04T04:21:56;101064.38;;;8.09;85.82
74960;BME280;63518;49.572;1.106;2024-02-04T04:24:23;101050.59;;;8.21;84.95
74960;BME280;63518;49.572;1.106;2024-02-04T04:26:50;101053.31;;;7.51;85.09
74960;BME280;63518;49.572;1.106;2024-02-04T04:29:17;101046.06;;;8.15;80.97
74960;BME280;63518;49.572;1.106;2024-02-04T04:31:43;101045.47;;;8.25;84.40
74960;BME280;63518;49.572;1.106;2024-02-04T04:34:10;101025.66;;;7.88;84.50
74960;BME280;63518;49.572;1.106;2024-02-04T04:36:37;101038.81;;;7.74;82.93
74960;BME280;63518;49.572;1.106;2024-02-04T04:39:04;101049.78;;;8.21;83.91
74960;BME280;63518;49.572;1.106;2024-02-04T04:41:31;101035.91;;;8.16;83.68
74960;BME280;63518;49.572;1.106;2024-02-04T04:43:58;101052.06;;;8.12;83.41
74960;BME280;63518;49.572;1.106;2024-02-04T04:46:25;101040.84;;;7.90;84.76
74960;BME280;63518;49.572;1.106;2024-02-04T04:48:51;101047.06;;;7.86;84.79
74960;BME280;63518;49.572;1.106;2024-02-04T04:51:19;101035.91;;;7.92;85.05
74960;BME280;63518;49.572;1.106;2024-02-04T04:53:46;101025.91;;;7.86;86.04
74960;BME280;63518;49.572;1.106;2024-02-04T04:56:12;101027.91;;;7.91;83.55
74960;BME280;63518;49.572;1.106;2024-02-04T04:58:39;101024.59;;;7.89;83.29
74960;BME280;63518;49.572;1.106;2024-02-04T05:01:06;101041.72;;;8.31;82.90
74960;BME280;63518;49.572;1.106;2024-02-04T05:03:33;101034.88;;;7.93;86.92
74960;BME280;63518;49.572;1.106;2024-02-04T05:06:00;101034.34;;;8.20;86.95
74960;BME280;63518;49.572;1.106;2024-02-04T05:08:27;101031.81;;;8.30;87.99
74960;BME280;63518;49.572;1.106;2024-02-04T05:10:54;101048.84;;;7.92;89.97
74960;BME280;63518;49.572;1.106;2024-02-04T05:13:21;101029.38;;;7.93;91.24
74960;BME280;63518;49.572;1.106;2024-02-04T05:15:48;101046.16;;;8.32;91.58
74960;BME280;63518;49.572;1.106;2024-02-04T05:18:14;101053.19;;;8.39;92.79
74960;BME280;63518;49.572;1.106;2024-02-04T05:20:41;101048.47;;;7.76;96.39
74960;BME280;63518;49.572;1.106;2024-02-04T05:23:10;101054.69;;;8.19;94.00
74960;BME280;63518;49.572;1.106;2024-02-04T05:25:37;101053.13;;;8.11;94.42
74960;BME280;63518;49.572;1.106;2024-02-04T05:28:04;101042.84;;;8.06;95.76
74960;BME280;63518;49.572;1.106;2024-02-04T05:30:31;101051.69;;;8.20;97.86
74960;BME280;63518;49.572;1.106;2024-02-04T05:32:57;101034.09;;;8.21;95.63
74960;BME280;63518;49.572;1.106;2024-02-04T05:35:24;101055.41;;;8.26;98.46
74960;BME280;63518;49.572;1.106;2024-02-04T05:37:51;101051.69;;;8.20;99.20
74960;BME280;63518;49.572;1.106;2024-02-04T05:40:18;101052.06;;;8.12;99.72
74960;BME280;63518;49.572;1.106;2024-02-04T05:42:47;101042.84;;;8.06;98.72
74960;BME280;63518;49.572;1.106;2024-02-04T05:45:14;101064.25;;;8.04;98.14
74960;BME280;63518;49.572;1.106;2024-02-04T05:47:41;101058.16;;;8.26;95.58
74960;BME280;63518;49.572;1.106;2024-02-04T05:50:08;101058.75;;;8.16;98.08
74960;BME280;63518;49.572;1.106;2024-02-04T05:52:35;101049.41;;;8.29;97.13
74960;BME280;63518;49.572;1.106;2024-02-04T05:55:02;101055.78;;;8.18;99.40
74960;BME280;63518;49.572;1.106;2024-02-04T05:57:31;101039.84;;;8.08;98.43
74960;BME280;63518;49.572;1.106;2024-02-04T05:59:58;101037.84;;;8.03;98.60
74960;BME280;63518;49.572;1.106;2024-02-04T06:02:26;101040.00;;;7.90;98.54
74960;BME280;63518;49.572;1.106;2024-02-04T06:04:53;101058.63;;;7.76;96.89
74960;BME280;63518;49.572;1.106;2024-02-04T06:07:20;101051.47;;;7.98;95.79
74960;BME280;63518;49.572;1.106;2024-02-04T06:09:47;101060.78;;;8.21;97.49
74960;BME280;63518;49.572;1.106;2024-02-04T06:12:13;101061.03;;;7.96;98.12
74960;BME280;63518;49.572;1.106;2024-02-04T06:14:40;101050.81;;;8.31;96.62
74960;BME280;63518;49.572;1.106;2024-02-04T06:17:07;101051.97;;;7.95;96.70
74960;BME280;63518;49.572;1.106;2024-02-04T06:19:37;101053.25;;;8.04;94.94
74960;BME280;63518;49.572;1.106;2024-02-04T06:22:04;101050.03;;;8.19;96.75
74960;BME280;63518;49.572;1.106;2024-02-04T06:24:31;101062.69;;;8.20;95.17
74960;BME280;63518;49.572;1.106;2024-02-04T06:26:58;101058.53;;;8.18;97.15
74960;BME280;63518;49.572;1.106;2024-02-04T06:29:24;101057.56;;;8.12;97.31
74960;BME280;63518;49.572;1.106;2024-02-04T06:31:51;101052.66;;;8.26;97.37
74960;BME280;63518;49.572;1.106;2024-02-04T06:34:18;101065.69;;;7.83;95.81
74960;BME280;63518;49.572;1.106;2024-02-04T06:36:45;101049.44;;;8.05;93.88
74960;BME280;63518;49.572;1.106;2024-02-04T06:39:12;101061.41;;;7.88;93.02
74960;BME280;63518;49.572;1.106;2024-02-04T06:41:39;101065.94;;;7.82;91.50
74960;BME280;63518;49.572;1.106;2024-02-04T06:44:06;101032.91;;;7.58;89.88
74960;BME280;63518;49.572;1.106;2024-02-04T06:46:33;101058.78;;;7.81;89.02
74960;BME280;63518;49.572;1.106;2024-02-04T06:49:00;101069.63;;;7.76;91.10
74960;BME280;63518;49.572;1.106;2024-02-04T06:51:28;101060.22;;;7.95;88.22
74960;BME280;63518;49.572;1.106;2024-02-04T06:53:54;101068.47;;;7.95;88.39
74960;BME280;63518;49.572;1.106;2024-02-04T06:56:21;101061.25;;;7.71;90.89
74960;BME280;63518;49.572;1.106;2024-02-04T06:58:48;101054.09;;;7.81;89.58
74960;BME280;63518;49.572;1.106;2024-02-04T07:01:15;101067.97;;;7.87;91.32
74960;BME280;63518;49.572;1.106;2024-02-04T07:03:42;101057.03;;;7.68;89.74
74960;BME280;63518;49.572;1.106;2024-02-04T07:06:09;101059.22;;;8.13;90.36
74960;BME280;63518;49.572;1.106;2024-02-04T07:08:36;101068.41;;;7.72;91.45
74960;BME280;63518;49.572;1.106;2024-02-04T07:11:02;101069.16;;;7.91;90.80
74960;BME280;63518;49.572;1.106;2024-02-04T07:13:30;101076.81;;;8.00;89.12
74960;BME280;63518;49.572;1.106;2024-02-04T07:15:56;101065.19;;;7.63;90.44
74960;BME280;63518;49.572;1.106;2024-02-04T07:18:24;101069.91;;;7.86;89.24
74960;BME280;63518;49.572;1.106;2024-02-04T07:20:51;101075.50;;;8.03;90.23
74960;BME280;63518;49.572;1.106;2024-02-04T07:23:18;101066.03;;;7.75;91.25
74960;BME280;63518;49.572;1.106;2024-02-04T07:25:45;101046.28;;;7.67;91.73
74960;BME280;63518;49.572;1.106;2024-02-04T07:28:12;101062.59;;;7.80;89.63
74960;BME280;63518;49.572;1.106;2024-02-04T07:30:38;101057.88;;;7.57;88.35
74960;BME280;63518;49.572;1.106;2024-02-04T07:33:05;101065.19;;;7.63;88.11
74960;BME280;63518;49.572;1.106;2024-02-04T07:35:32;101055.69;;;7.36;87.88
74960;BME280;63518;49.572;1.106;2024-02-04T07:37:59;101068.03;;;7.68;87.19
74960;BME280;63518;49.572;1.106;2024-02-04T07:40:26;101051.69;;;7.62;88.03
74960;BME280;63518;49.572;1.106;2024-02-04T07:42:54;101059.72;;;7.87;88.16
74960;BME280;63518;49.572;1.106;2024-02-04T07:45:21;101062.50;;;7.45;87.28
74960;BME280;63518;49.572;1.106;2024-02-04T07:47:48;101051.78;;;7.67;84.60
74960;BME280;63518;49.572;1.106;2024-02-04T07:50:15;101056.66;;;7.41;84.87
74960;BME280;63518;49.572;1.106;2024-02-04T07:52:42;101062.16;;;7.53;84.11
74960;BME280;63518;49.572;1.106;2024-02-04T07:55:11;101063.59;;;7.44;81.55
74960;BME280;63518;49.572;1.106;2024-02-04T07:57:37;101045.69;;;7.53;81.34
74960;BME280;63518;49.572;1.106;2024-02-04T08:00:05;101057.50;;;7.42;82.57
74960;BME280;63518;49.572;1.106;2024-02-04T08:02:33;101077.75;;;7.71;79.19
74960;BME280;63518;49.572;1.106;2024-02-04T08:04:59;101078.69;;;7.65;80.29
74960;BME280;63518;49.572;1.106;2024-02-04T08:07:27;101066.97;;;7.57;79.81
74960;BME280;63518;49.572;1.106;2024-02-04T08:09:54;101057.88;;;7.69;81.72
74960;BME280;63518;49.572;1.106;2024-02-04T08:12:22;101055.59;;;7.42;80.67
74960;BME280;63518;49.572;1.106;2024-02-04T08:14:49;101069.34;;;7.54;79.53
74960;BME280;63518;49.572;1.106;2024-02-04T08:17:16;101074.47;;;7.50;78.60
74960;BME280;63518;49.572;1.106;2024-02-04T08:19:42;101071.09;;;7.37;79.80
74960;BME280;63518;49.572;1.106;2024-02-04T08:22:10;101070.75;;;7.45;79.27
74960;BME280;63518;49.572;1.106;2024-02-04T08:24:37;101052.00;;;7.42;78.59
74960;BME280;63518;49.572;1.106;2024-02-04T08:27:04;101074.97;;;7.47;79.14
74960;BME280;63518;49.572;1.106;2024-02-04T08:29:31;101073.41;;;7.51;78.07
74960;BME280;63518;49.572;1.106;2024-02-04T08:31:58;101064.84;;;7.71;79.78
74960;BME280;63518;49.572;1.106;2024-02-04T08:34:25;101068.53;;;7.53;79.46
74960;BME280;63518;49.572;1.106;2024-02-04T08:36:52;101075.63;;;7.96;79.22
74960;BME280;63518;49.572;1.106;2024-02-04T08:39:20;101049.28;;;7.65;83.81
74960;BME280;63518;49.572;1.106;2024-02-04T08:41:47;101071.06;;;7.90;82.53
74960;BME280;63518;49.572;1.106;2024-02-04T08:44:14;101058.03;;;7.97;83.29
74960;BME280;63518;49.572;1.106;2024-02-04T08:46:57;101066.84;;;7.64;84.95
74960;BME280;63518;49.572;1.106;2024-02-04T08:49:24;101072.25;;;7.82;86.61
74960;BME280;63518;49.572;1.106;2024-02-04T08:51:51;101075.97;;;7.76;85.96
74960;BME280;63518;49.572;1.106;2024-02-04T08:54:18;101071.94;;;7.79;87.44
74960;BME280;63518;49.572;1.106;2024-02-04T08:56:46;101070.84;;;8.03;88.15
74960;BME280;63518;49.572;1.106;2024-02-04T08:59:13;101078.34;;;7.84;84.60
74960;BME280;63518;49.572;1.106;2024-02-04T09:01:40;101074.69;;;8.02;87.50
74960;BME280;63518;49.572;1.106;2024-02-04T09:04:07;101075.75;;;7.78;87.51
74960;BME280;63518;49.572;1.106;2024-02-04T09:06:34;101084.38;;;7.93;87.72
74960;BME280;63518;49.572;1.106;2024-02-04T09:09:01;101076.72;;;7.95;89.83
74960;BME280;63518;49.572;1.106;2024-02-04T09:11:28;101082.31;;;8.00;89.64
74960;BME280;63518;49.572;1.106;2024-02-04T09:13:55;101066.78;;;7.82;90.94
74960;BME280;63518;49.572;1.106;2024-02-04T09:16:22;101053.25;;;7.69;89.96
74960;BME280;63518;49.572;1.106;2024-02-04T09:18:49;101060.81;;;7.86;91.17
74960;BME280;63518;49.572;1.106;2024-02-04T09:21:16;101067.97;;;7.98;88.33
74960;BME280;63518;49.572;1.106;2024-02-04T09:23:43;101050.28;;;7.94;91.51
74960;BME280;63518;49.572;1.106;2024-02-04T09:26:10;101026.13;;;7.73;89.20
74960;BME280;63518;49.572;1.106;2024-02-04T09:28:38;101059.59;;;8.17;89.58
74960;BME280;63518;49.572;1.106;2024-02-04T09:31:08;101062.59;;;7.92;93.17
74960;BME280;63518;49.572;1.106;2024-02-04T09:33:35;101047.88;;;8.09;92.67
74960;BME280;63518;49.572;1.106;2024-02-04T09:36:04;101039.88;;;7.96;93.07
74960;BME280;63518;49.572;1.106;2024-02-04T09:38:32;101041.69;;;8.02;94.78
74960;BME280;63518;49.572;1.106;2024-02-04T09:41:00;101065.69;;;8.07;95.76
74960;BME280;63518;49.572;1.106;2024-02-04T09:43:27;101054.09;;;7.81;93.94
74960;BME280;63518;49.572;1.106;2024-02-04T09:45:55;101054.31;;;8.27;91.92
74960;BME280;63518;49.572;1.106;2024-02-04T09:48:22;101067.13;;;7.98;92.69
74960;BME280;63518;49.572;1.106;2024-02-04T09:50:52;101063.06;;;8.00;91.50
74960;BME280;63518;49.572;1.106;2024-02-04T09:53:21;101079.03;;;7.68;90.91
74960;BME280;63518;49.572;1.106;2024-02-04T09:55:56;101068.81;;;7.99;87.24
74960;BME280;63518;49.572;1.106;2024-02-04T09:58:24;101075.72;;;8.13;88.69
74960;BME280;63518;49.572;1.106;2024-02-04T10:00:51;101073.56;;;8.27;87.96
74960;BME280;63518;49.572;1.106;2024-02-04T10:03:18;101076.44;;;8.20;91.15
74960;BME280;63518;49.572;1.106;2024-02-04T10:05:45;101072.41;;;8.11;92.17
74960;BME280;63518;49.572;1.106;2024-02-04T10:08:13;101083.63;;;8.33;91.70
74960;BME280;63518;49.572;1.106;2024-02-04T10:10:47;101057.47;;;7.95;92.65
74960;BME280;63518;49.572;1.106;2024-02-04T10:13:15;101056.25;;;7.79;91.35
74960;BME280;63518;49.572;1.106;2024-02-04T10:15:43;101060.19;;;7.83;89.70
74960;BME280;63518;49.572;1.106;2024-02-04T10:18:10;101059.94;;;8.08;90.42
74960;BME280;63518;49.572;1.106;2024-02-04T10:20:38;101066.41;;;8.14;90.91
74960;BME280;63518;49.572;1.106;2024-02-04T10:23:04;101048.34;;;8.06;89.35
74960;BME280;63518;49.572;1.106;2024-02-04T10:25:32;101074.16;;;8.29;92.54
74960;BME280;63518;49.572;1.106;2024-02-04T10:27:59;101083.28;;;8.18;94.67
74960;BME280;63518;49.572;1.106;2024-02-04T10:30:26;101060.53;;;8.34;94.49
74960;BME280;63518;49.572;1.106;2024-02-04T10:32:54;101078.50;;;8.25;95.82
74960;BME280;63518;49.572;1.106;2024-02-04T10:35:21;101079.53;;;8.24;95.00
74960;BME280;63518;49.572;1.106;2024-02-04T10:37:50;101065.56;;;7.90;96.23
74960;BME280;63518;49.572;1.106;2024-02-04T10:40:18;101086.75;;;8.25;93.81
74960;BME280;63518;49.572;1.106;2024-02-04T10:42:46;101084.78;;;8.49;96.22
74960;BME280;63518;49.572;1.106;2024-02-04T10:45:15;101100.50;;;8.13;98.17
74960;BME280;63518;49.572;1.106;2024-02-04T10:47:47;101096.28;;;8.22;97.33
74960;BME280;63518;49.572;1.106;2024-02-04T10:50:20;101110.41;;;8.49;97.06
74960;BME280;63518;49.572;1.106;2024-02-04T10:52:49;101096.53;;;8.32;97.90
74960;BME280;63518;49.572;1.106;2024-02-04T10:55:21;101076.78;;;8.24;96.44
74960;BME280;63518;49.572;1.106;2024-02-04T10:57:52;101100.72;;;8.35;98.35
74960;BME280;63518;49.572;1.106;2024-02-04T11:00:19;101090.63;;;8.52;97.46
74960;BME280;63518;49.572;1.106;2024-02-04T11:02:47;101077.50;;;8.43;97.79
74960;BME280;63518;49.572;1.106;2024-02-04T11:05:16;101091.34;;;8.48;97.62
74960;BME280;63518;49.572;1.106;2024-02-04T11:07:44;101066.63;;;8.36;97.91
74960;BME280;63518;49.572;1.106;2024-02-04T11:10:11;101076.69;;;8.71;98.62
74960;BME280;63518;49.572;1.106;2024-02-04T11:12:40;101070.44;;;8.35;98.59
74960;BME280;63518;49.572;1.106;2024-02-04T11:15:10;101067.47;;;8.25;100.00
74960;BME280;63518;49.572;1.106;2024-02-04T11:18:17;101070.00;;;8.66;99.61
74960;BME280;63518;49.572;1.106;2024-02-04T11:21:14;101080.63;;;9.03;100.00
74960;BME280;63518;49.572;1.106;2024-02-04T11:24:06;101084.16;;;8.58;100.00
74960;BME280;63518;49.572;1.106;2024-02-04T11:26:36;101080.69;;;8.91;100.00
74960;BME280;63518;49.572;1.106;2024-02-04T11:29:09;101064.44;;;8.78;100.00
74960;BME280;63518;49.572;1.106;2024-02-04T11:31:38;101078.59;;;8.18;100.00
74960;BME280;63518;49.572;1.106;2024-02-04T11:34:08;101076.63;;;8.54;100.00
74960;BME280;63518;49.572;1.106;2024-02-04T11:36:39;101064.84;;;8.70;100.00
74960;BME280;63518;49.572;1.106;2024-02-04T11:39:13;101063.63;;;9.06;100.00
74960;BME280;63518;49.572;1.106;2024-02-04T11:41:45;101077.00;;;8.57;100.00
74960;BME280;63518;49.572;1.106;2024-02-04T11:44:26;101072.13;;;8.76;100.00
74960;BME280;63518;49.572;1.106;2024-02-04T11:46:54;101073.91;;;8.42;100.00
74960;BME280;63518;49.572;1.106;2024-02-04T11:49:25;101059.84;;;8.55;100.00
74960;BME280;63518;49.572;1.106;2024-02-04T11:51:52;101050.53;;;8.56;100.00
74960;BME280;63518;49.572;1.106;2024-02-04T11:54:20;101049.53;;;8.62;100.00
74960;BME280;63518;49.572;1.106;2024-02-04T11:56:49;101056.03;;;8.96;100.00
74960;BME280;63518;49.572;1.106;2024-02-04T11:59:21;101047.31;;;8.88;100.00
74960;BME280;63518;49.572;1.106;2024-02-04T12:01:56;101062.09;;;8.70;100.00
74960;BME280;63518;49.572;1.106;2024-02-04T12:04:27;101050.63;;;8.61;100.00
74960;BME280;63518;49.572;1.106;2024-02-04T12:06:54;101050.94;;;8.48;100.00
74960;BME280;63518;49.572;1.106;2024-02-04T12:09:22;101031.59;;;8.20;100.00
74960;BME280;63518;49.572;1.106;2024-02-04T12:11:49;101049.28;;;8.35;100.00
74960;BME280;63518;49.572;1.106;2024-02-04T12:14:17;101050.44;;;8.51;100.00
74960;BME280;63518;49.572;1.106;2024-02-04T12:16:45;101011.09;;;8.39;98.71
74960;BME280;63518;49.572;1.106;2024-02-04T12:19:12;101047.22;;;8.43;96.68
74960;BME280;63518;49.572;1.106;2024-02-04T12:21:39;101027.06;;;8.25;98.04
74960;BME280;63518;49.572;1.106;2024-02-04T12:24:06;101039.16;;;8.53;94.75
74960;BME280;63518;49.572;1.106;2024-02-04T12:26:33;101045.25;;;8.66;94.15
74960;BME280;63518;49.572;1.106;2024-02-04T12:29:00;101039.63;;;8.61;95.48
74960;BME280;63518;49.572;1.106;2024-02-04T12:31:27;101036.09;;;8.78;96.05
74960;BME280;63518;49.572;1.106;2024-02-04T12:33:59;101023.69;;;8.92;97.43
74960;BME280;63518;49.572;1.106;2024-02-04T12:36:32;101024.88;;;8.67;99.12
74960;BME280;63518;49.572;1.106;2024-02-04T12:39:00;101038.59;;;8.79;98.14
74960;BME280;63518;49.572;1.106;2024-02-04T12:41:28;101003.53;;;8.46;99.11
74960;BME280;63518;49.572;1.106;2024-02-04T12:43:58;101036.47;;;8.69;100.00
74960;BME280;63518;49.572;1.106;2024-02-04T12:46:26;101030.84;;;8.36;99.74
74960;BME280;63518;49.572;1.106;2024-02-04T12:48:55;101033.47;;;8.71;99.34
74960;BME280;63518;49.572;1.106;2024-02-04T12:51:27;101033.88;;;8.91;99.03
74960;BME280;63518;49.572;1.106;2024-02-04T12:54:08;101022.13;;;8.67;100.00
74960;BME280;63518;49.572;1.106;2024-02-04T12:59:26;101024.78;;;8.62;100.00
74960;BME280;63518;49.572;1.106;2024-02-04T13:02:09;101010.72;;;8.76;100.00
74960;BME280;63518;49.572;1.106;2024-02-04T13:07:11;101025.19;;;8.83;100.00
74960;BME280;63518;49.572;1.106;2024-02-04T13:09:44;101033.81;;;8.46;100.00
74960;BME280;63518;49.572;1.106;2024-02-04T13:12:14;101018.09;;;8.58;100.00
74960;BME280;63518;49.572;1.106;2024-02-04T13:14:42;101034.91;;;8.74;99.23
74960;BME280;63518;49.572;1.106;2024-02-04T13:17:09;101011.19;;;9.01;100.00
74960;BME280;63518;49.572;1.106;2024-02-04T13:19:37;101010.88;;;9.14;100.00